Aviation Digital Data Service (ADDS)

Output produced by METARs form (0147 UTC 27 April 2015)
found at http://aviationweather.gov/adds/metars/
 
KAEX 262340Z 2700/2724 14006KT P6SM SCT050 SCT250 
     FM270800 04010KT P6SM VCSH BKN025 OVC035 
     TEMPO 2710/2714 4SM -SHRA OVC025 
     FM271400 08014G22KT 6SM SHRA VCTS OVC025CB 
     TEMPO 2714/2718 VRB25G40KT 1/2SM +TSRA OVC005CB 
     FM271800 06015G25KT 2SM +TSRA BR BKN007 OVC020CB 
     FM272100 07016G25KT P6SM VCTS SCT007 OVC020CB